Wednesday, April 25, 2018, 8:23 AM EDT
Back to Local

KIDI, Indiana / Stewart Field

Location: Indiana, PA, United States Lat: 40.633
Local Time: 8:23 AM EDT (12:23 GMT) Lon: -79.1
Time Zone: US/Eastern Elev: 1407 ft

Show me the last for .
Show Coded

Time T Td Feel RH Dir Speed Gust Alt SLP Vis Weather Sky Remarks
2018-04-25 07:55 52 48 - 87 100° 6 - 29.88 - 10 FEW011 OVC041 None
2018-04-25 07:35 50 48 48 93 90° 5 - 29.88 - 10 OVC041 None
2018-04-25 07:15 50 48 48 93 100° 5 - 29.88 - 10 OVC041 None
2018-04-25 06:55 50 48 48 93 90° 5 - 29.88 - 10 FEW012 OVC041 None
2018-04-25 06:35 50 48 49 93 100° 3 - 29.88 - 10 BKN012 OVC041 None
2018-04-25 06:15 50 48 49 93 100° 3 - 29.88 - 10 OVC012 None
2018-04-25 05:55 50 48 48 93 110° 5 - 29.88 - 10 OVC012 None
2018-04-25 05:35 50 48 48 93 120° 5 - 29.89 - 10 OVC013 None
2018-04-25 05:15 50 48 48 93 100° 5 - 29.89 - 10 OVC014 None
2018-04-25 04:55 50 48 48 93 100° 5 - 29.89 - 10 OVC014 None
2018-04-25 04:35 50 48 48 93 110° 5 - 29.90 - 10 OVC014 None
2018-04-25 04:15 50 48 49 93 110° 3 - 29.91 - 10 OVC013 None
2018-04-25 03:55 50 48 46 93 120° 5 12 29.91 - 10 OVC013 None
2018-04-25 03:35 50 48 47 93 110° 7 - 29.91 - 10 OVC013 None
2018-04-25 03:15 50 48 45 93 110° 7 13 29.92 - 10 BKN014 OVC065 None
2018-04-25 02:55 50 48 45 93 Variable 7 13 29.92 - 10 FEW016 OVC065 None
2018-04-25 02:35 50 48 44 93 110° 9 17 29.92 - 10 FEW015 OVC060 None
2018-04-25 02:15 50 48 44 93 120° 12 17 29.93 - 10 BKN015 OVC065 None
2018-04-25 01:55 50 48 46 93 110° 10 - 29.94 - 10 OVC015 None
2018-04-25 00:55 50 48 45 93 120° 7 14 29.97 - 10 OVC016 None
2018-04-25 00:35 50 48 46 93 110° 9 - 29.97 - 10 BKN016 OVC022 None
2018-04-25 00:15 52 48 - 87 100° 7 - 29.98 - 10 BKN019 OVC023 None
2018-04-24 23:55 52 48 - 87 120° 9 15 29.99 - 10 SCT018 OVC023 None
2018-04-24 23:35 50 50 47 100 100° 7 - 29.99 - 10 SCT017 OVC024 None
2018-04-24 23:15 50 50 45 100 Variable 7 14 30.01 - 9 SCT017 BKN023 OVC029 None
2018-04-24 22:55 50 50 48 100 100° 6 - 30.02 - 6 BR FEW013 BKN017 OVC029 None
2018-04-24 22:35 50 50 45 100 90° 7 13 30.03 - 9 BKN017 OVC022 None
2018-04-24 22:15 50 50 46 100 110° 9 - 30.04 - 10 BKN017 OVC060 None
2018-04-24 21:55 52 50 - 93 100° 6 - 30.05 - 6 BR BKN017 OVC070 None
2018-04-24 21:35 50 50 48 100 100° 6 - 30.05 - 7 FEW015 BKN060 OVC070 None
2018-04-24 21:15 52 50 - 93 100° 7 - 30.05 - 5 BR SCT016 SCT030 OVC060 None
2018-04-24 20:55 52 50 - 93 110° 8 14 30.05 - 4 BR BKN017 BKN033 OVC070 None
2018-04-24 20:35 52 50 - 93 100° 8 - 30.06 - 4 BR FEW014 BKN018 OVC070 None
2018-04-24 20:15 52 50 - 93 Variable 7 14 30.05 - 5 BR FEW014 SCT021 OVC060 None
2018-04-24 19:55 52 50 - 93 100° 7 14 30.05 - 4 BR FEW014 SCT049 OVC065 None
2018-04-24 19:35 52 50 - 93 110° 9 - 30.05 - 4 BR FEW017 FEW047 OVC060 None
2018-04-24 19:15 52 50 - 93 110° 9 - 30.06 - 4 BR FEW016 SCT050 OVC065 None
2018-04-24 18:55 52 50 - 93 110° 8 - 30.06 - 3 BR FEW014 FEW018 OVC065 None
2018-04-24 18:35 52 50 - 93 120° 9 17 30.06 - 4 BR FEW017 SCT046 OVC065 None
2018-04-24 18:15 52 50 - 93 110° 9 - 30.07 - 3 BR FEW016 SCT035 BKN055 None
2018-04-24 17:55 52 50 - 93 120° 12 - 30.08 - 3 BR FEW016 SCT055 OVC065 None
2018-04-24 17:35 52 50 - 93 110° 15 - 30.08 - 4 BR FEW014 FEW039 OVC070 None
2018-04-24 17:15 52 50 - 93 110° 8 17 30.09 - 5 BR FEW036 FEW055 BKN070 None
2018-04-24 16:55 52 50 - 93 120° 8 14 30.09 - 4 BR SCT017 SCT023 BKN036 None
2018-04-24 16:35 52 50 - 93 110° 9 - 30.10 - 3 BR SCT018 SCT023 BKN034 None
2018-04-24 16:15 52 50 - 93 130° 8 16 30.11 - 3 BR FEW019 SCT042 BKN070 None
2018-04-24 15:55 52 48 - 87 110° 10 20 30.11 - 3 BR SCT018 SCT036 BKN048 None
2018-04-24 15:35 52 48 - 87 130° 10 20 30.12 - 3 BR FEW016 SCT036 BKN070 None
2018-04-24 14:15 52 48 - 87 130° 14 - 30.15 - 4 BR SCT019 SCT043 BKN070 None
2018-04-24 13:55 52 48 - 87 130° 14 24 30.16 - 3 BR FEW019 SCT043 BKN065 None
2018-04-24 13:35 50 48 44 93 140° 13 20 30.16 - 3 BR FEW019 FEW032 SCT055 None
2018-04-24 13:15 50 48 42 93 130° 21 30 30.16 - 3 BR FEW036 FEW049 SCT065 None
2018-04-24 12:55 50 48 43 93 130° 12 23 30.17 - 4 BR SCT060 None
2018-04-24 12:35 50 48 43 93 130° 16 24 30.19 - 4 BR FEW017 FEW032 SCT065 None
2018-04-24 12:15 50 48 43 93 130° 16 22 30.20 - 3 BR SCT018 BKN031 BKN047 None
2018-04-24 11:55 50 46 44 87 130° 10 17 30.20 - 3 BR BKN019 BKN027 OVC065 None
2018-04-24 11:35 50 46 45 87 100° 7 15 30.21 - 4 BR OVC019 None
2018-04-24 11:15 50 46 47 87 130° 8 - 30.22 - 4 BR OVC020 None
2018-04-24 10:55 50 46 46 87 110° 9 - 30.22 - 5 BR BKN021 OVC027 None
2018-04-24 10:35 50 45 47 81 Variable 7 - 30.22 - 5 HZ BKN025 BKN060 None
2018-04-24 10:15 50 45 45 81 120° 8 14 30.23 - 7 OVC026 None
2018-04-24 09:55 50 43 45 76 130° 6 15 30.23 - 4 HZ BKN027 BKN035 OVC060 None
2018-04-24 09:35 50 43 45 76 130° 9 15 30.24 - 7 BKN031 OVC060 None
2018-04-24 09:15 52 41 - 66 120° 7 16 30.24 - 9 BKN032 OVC060 None
2018-04-24 08:55 52 39 - 62 170° 12 20 30.25 - 10 BKN033 OVC065 None
2018-04-24 08:35 52 39 - 62 Variable 6 17 30.25 - 10 BKN035 BKN065 BKN090 None

Support USWX by starting your Amazon purchase here.